METAR Data
IDs: Format: Raw Decoded Include TAF

Data at: 2350 UTC 29 May 2020

METAR for:KBNW (Boone Muni, IA, US)
Text:KBNW 292335Z AUTO 34013KT 10SM CLR 21/09 A3013 RMK AO2
Temperature: 21.0°C ( 70°F)
Dewpoint: 9.0°C ( 48°F) [RH = 46%]
Pressure (altimeter):30.13 inches Hg (1020.4 mb)
Winds:from the NNW (340 degrees) at 15 MPH (13 knots; 6.7 m/s)
Visibility:10 or more sm (16+ km)
Ceiling:at least 12,000 feet AGL
Clouds:sky clear below 12,000 feet AGL
QC Flag:automated observation with no human augmentation